»·PEaware :: VRD1826 KSFO-KBUR

VRD1826 :: KSFO-KBUR

FLIGHT INFORMATION

Flight Status: Arrived
Operator:
Virgin America
More flights by this operator :: More flights under this callsign
Pilot: Kyle M. (9350)
Aircraft: AIRBUS A319
(A319)
More flights by this aircraft type
Origin: KSFO San Francisco Intl
United States
Destination: KBUR Bob Hope-Burbank
United States
More flights between these airports :: More routes between these airports
Route: SSTIK4 CISKO RDHOT ROKKR2
File this flight plan on PilotEdge
Remarks: CptCanada - Youtube Livestreams!
Altitude:
(Current/Filed)
35,000ft
Speed:
(Current/Filed)
450kts
Departed: 29-Sep-18 10:30 AM
Arrived: 29-Sep-18 11:23 AM
Distance/Time
Traveled:
283nm/0:52
Distance/Time
To Go:
Arrived

Flight Plot

Page will automatically refresh every two minutes.

Flight plan parsing failed; only flown route is shown


Map Options




Map Legend


Flown Route
Filed Route
Departure Airport
Arrival Airport
Navaid (VOR, NDB)
Fix

Horizontal Profiles

Position Reports

Time Latitude Longitude Heading Altitude Ground
Speed
29-Sep-18 09:52 37.616764 -122.381702 22 22ft 0kts
29-Sep-18 09:53 37.616764 -122.381702 22 22ft 0kts
29-Sep-18 09:54 37.616764 -122.381702 22 22ft 0kts
29-Sep-18 09:55 37.616764 -122.381702 22 22ft 0kts
29-Sep-18 09:56 37.616764 -122.381702 22 22ft 0kts
29-Sep-18 09:57 37.616764 -122.381702 22 22ft 0kts
29-Sep-18 09:58 37.616764 -122.381702 22 22ft 0kts
29-Sep-18 09:59 37.616764 -122.381702 22 22ft 0kts
29-Sep-18 10:00 37.616764 -122.381702 22 22ft 0kts
29-Sep-18 10:01 37.616764 -122.381702 22 22ft 0kts
29-Sep-18 10:02 37.616764 -122.381702 22 22ft 0kts
29-Sep-18 10:03 37.616764 -122.381702 22 22ft 0kts
29-Sep-18 10:04 37.616764 -122.381702 22 22ft 0kts
29-Sep-18 10:05 37.616764 -122.381702 22 22ft 0kts
29-Sep-18 10:06 37.616764 -122.381702 22 22ft 0kts
29-Sep-18 10:07 37.616764 -122.381702 22 22ft 0kts
29-Sep-18 10:08 37.616764 -122.381702 22 22ft 0kts
29-Sep-18 10:09 37.616764 -122.381702 22 22ft 0kts
29-Sep-18 10:10 37.616764 -122.381702 22 22ft 0kts
29-Sep-18 10:11 37.616764 -122.381702 22 22ft 0kts
29-Sep-18 10:12 37.616764 -122.381702 22 22ft 0kts
29-Sep-18 10:13 37.616764 -122.381702 22 22ft 0kts
29-Sep-18 10:14 37.616764 -122.381702 22 22ft 0kts
29-Sep-18 10:15 37.616764 -122.381702 22 22ft 0kts
29-Sep-18 10:16 37.616764 -122.381702 22 22ft 0kts
29-Sep-18 10:17 37.616764 -122.381702 22 22ft 0kts
29-Sep-18 10:18 37.616764 -122.381702 22 22ft 0kts
29-Sep-18 10:19 37.616764 -122.381702 22 22ft 0kts
29-Sep-18 10:20 37.616764 -122.381702 22 22ft 0kts
29-Sep-18 10:21 37.616764 -122.381702 22 22ft 0kts
29-Sep-18 10:22 37.616764 -122.381702 22 22ft 0kts
29-Sep-18 10:23 37.616763 -122.381702 22 22ft 0kts
29-Sep-18 10:24 37.616477 -122.381847 22 22ft 2kts
29-Sep-18 10:25 37.616191 -122.382188 85 22ft 0kts
29-Sep-18 10:26 37.616191 -122.382188 83 22ft 0kts
29-Sep-18 10:27 37.616136 -122.381645 111 22ft 7kts
29-Sep-18 10:28 37.614101 -122.381299 207 22ft 14kts
29-Sep-18 10:29 37.609954 -122.384166 214 22ft 17kts
29-Sep-18 10:30 37.608472 -122.383871 117 22ft 1kts
29-Sep-18 10:31 37.609450 -122.381908 28 22ft 37kts
29-Sep-18 10:32 37.644966 -122.364503 3 1767ft 166kts
29-Sep-18 10:33 37.695918 -122.367307 325 4396ft 216kts
29-Sep-18 10:34 37.684357 -122.431749 188 7130ft 275kts
29-Sep-18 10:35 37.608574 -122.447351 189 7960ft 278kts
29-Sep-18 10:36 37.533517 -122.464527 190 9429ft 279kts
29-Sep-18 10:37 37.458013 -122.437371 137 11583ft 342kts
29-Sep-18 10:38 37.386502 -122.349894 137 14692ft 371kts
29-Sep-18 10:39 37.310876 -122.258586 137 17595ft 387kts
29-Sep-18 10:40 37.232280 -122.164205 138 20099ft 402kts
29-Sep-18 10:41 37.150086 -122.065813 138 22368ft 417kts
29-Sep-18 10:42 37.065357 -121.964726 138 24395ft 430kts
29-Sep-18 10:43 36.977665 -121.860460 137 26219ft 442kts
29-Sep-18 10:44 36.887895 -121.754050 137 27855ft 453kts
29-Sep-18 10:45 36.795427 -121.645321 137 29315ft 462kts
29-Sep-18 10:46 36.702137 -121.535503 137 30989ft 462kts
29-Sep-18 10:47 36.609360 -121.426610 137 32619ft 458kts
29-Sep-18 10:48 36.517029 -121.318538 138 34085ft 456kts
29-Sep-18 10:49 36.425132 -121.211223 138 34988ft 454kts
29-Sep-18 10:50 36.331296 -121.108050 142 34995ft 453kts
29-Sep-18 10:51 36.234065 -121.009302 142 34995ft 453kts
29-Sep-18 10:52 36.137284 -120.910548 142 35006ft 453kts
29-Sep-18 10:53 36.040077 -120.811567 142 35020ft 453kts
29-Sep-18 10:54 35.943211 -120.713261 142 35021ft 453kts
29-Sep-18 10:55 35.845818 -120.615033 142 35019ft 453kts
29-Sep-18 10:56 35.764778 -120.533429 142 35021ft 453kts
29-Sep-18 10:57 35.651429 -120.419486 142 35021ft 453kts
29-Sep-18 10:58 35.570549 -120.338011 141 35017ft 453kts
29-Sep-18 10:59 35.459127 -120.220878 141 35021ft 454kts
29-Sep-18 11:00 35.379609 -120.138094 141 35021ft 454kts
29-Sep-18 11:01 35.266883 -120.021338 141 35019ft 463kts
29-Sep-18 11:02 35.185458 -119.937246 141 35001ft 464kts
29-Sep-18 11:03 35.072281 -119.820693 141 32615ft 456kts
29-Sep-18 11:04 34.992549 -119.738823 140 28000ft 457kts
29-Sep-18 11:05 34.899738 -119.643652 140 23625ft 428kts
29-Sep-18 11:06 34.826698 -119.547058 130 20475ft 403kts
29-Sep-18 11:07 34.757361 -119.443475 129 18410ft 391kts
29-Sep-18 11:08 34.691363 -119.342488 129 16459ft 379kts
29-Sep-18 11:09 34.631711 -119.245604 121 14638ft 369kts
29-Sep-18 11:10 34.579707 -119.140277 121 12755ft 360kts
29-Sep-18 11:11 34.519937 -119.046286 145 10990ft 350kts
29-Sep-18 11:12 34.445585 -118.978729 147 10061ft 304kts
29-Sep-18 11:13 34.404736 -118.898119 101 9152ft 297kts
29-Sep-18 11:14 34.389461 -118.802579 108 7952ft 277kts
29-Sep-18 11:15 34.363563 -118.717891 111 6627ft 265kts
29-Sep-18 11:16 34.338694 -118.635782 100 5412ft 235kts
29-Sep-18 11:17 34.334849 -118.569791 92 5172ft 183kts
29-Sep-18 11:18 34.334335 -118.510261 91 4637ft 155kts
29-Sep-18 11:19 34.334100 -118.462923 91 3272ft 135kts
29-Sep-18 11:20 34.316709 -118.427784 133 2527ft 129kts
29-Sep-18 11:21 34.292369 -118.395928 135 2429ft 127kts
29-Sep-18 11:22 34.262361 -118.375152 159 2167ft 126kts
29-Sep-18 11:23 34.228543 -118.364885 165 1216ft 124kts
29-Sep-18 11:24 34.198235 -118.356569 166 785ft 62kts
29-Sep-18 11:25 34.196146 -118.354981 124 785ft 0kts

Navigation Log

Ident Type
Flight plan parsing failed, navigation log unavailable